sensor_id;sensor_type;location;lat;lon;timestamp;pressure;altitude;pressure_sealevel;temperature;humidity
65546;BME280;52177;55.968;37.498;2024-03-07T00:00:07;100650.31;;;-10.05;64.72
65546;BME280;52177;55.968;37.498;2024-03-07T00:00:44;100646.06;;;-10.08;64.97
65546;BME280;52177;55.968;37.498;2024-03-07T00:01:15;100650.38;;;-10.08;65.07
65546;BME280;52177;55.968;37.498;2024-03-07T00:01:46;100646.06;;;-10.09;65.07
65546;BME280;52177;55.968;37.498;2024-03-07T00:02:17;100647.81;;;-10.10;64.92
65546;BME280;52177;55.968;37.498;2024-03-07T00:02:49;100641.81;;;-10.10;64.88
65546;BME280;52177;55.968;37.498;2024-03-07T00:03:20;100652.97;;;-10.10;64.96
65546;BME280;52177;55.968;37.498;2024-03-07T00:03:50;100642.66;;;-10.11;64.96
65546;BME280;52177;55.968;37.498;2024-03-07T00:04:21;100642.66;;;-10.11;64.98
65546;BME280;52177;55.968;37.498;2024-03-07T00:04:51;100640.97;;;-10.12;65.13
65546;BME280;52177;55.968;37.498;2024-03-07T00:05:22;100646.13;;;-10.12;65.13
65546;BME280;52177;55.968;37.498;2024-03-07T00:05:55;100642.72;;;-10.13;65.24
65546;BME280;52177;55.968;37.498;2024-03-07T00:06:25;100640.97;;;-10.11;65.30
65546;BME280;52177;55.968;37.498;2024-03-07T00:06:56;100641.81;;;-10.10;65.42
65546;BME280;52177;55.968;37.498;2024-03-07T00:07:26;100644.38;;;-10.09;65.26
65546;BME280;52177;55.968;37.498;2024-03-07T00:07:56;100634.91;;;-10.10;65.18
65546;BME280;52177;55.968;37.498;2024-03-07T00:08:28;100637.50;;;-10.11;65.16
65546;BME280;52177;55.968;37.498;2024-03-07T00:09:00;100637.56;;;-10.13;64.95
65546;BME280;52177;55.968;37.498;2024-03-07T00:09:34;100642.72;;;-10.14;64.94
65546;BME280;52177;55.968;37.498;2024-03-07T00:10:05;100638.47;;;-10.17;65.02
65546;BME280;52177;55.968;37.498;2024-03-07T00:10:37;100634.19;;;-10.18;65.14
65546;BME280;52177;55.968;37.498;2024-03-07T00:11:07;100634.22;;;-10.20;65.01
65546;BME280;52177;55.968;37.498;2024-03-07T00:11:38;100641.09;;;-10.20;65.01
65546;BME280;52177;55.968;37.498;2024-03-07T00:12:08;100635.97;;;-10.22;65.17
65546;BME280;52177;55.968;37.498;2024-03-07T00:12:39;100640.25;;;-10.21;65.18
65546;BME280;52177;55.968;37.498;2024-03-07T00:13:12;100631.69;;;-10.23;65.06
65546;BME280;52177;55.968;37.498;2024-03-07T00:13:43;100632.53;;;-10.22;64.85
65546;BME280;52177;55.968;37.498;2024-03-07T00:14:13;100641.13;;;-10.23;65.17
65546;BME280;52177;55.968;37.498;2024-03-07T00:14:44;100640.28;;;-10.24;65.09
65546;BME280;52177;55.968;37.498;2024-03-07T00:15:15;100633.44;;;-10.25;65.00
65546;BME280;52177;55.968;37.498;2024-03-07T00:15:45;100631.75;;;-10.27;65.04
65546;BME280;52177;55.968;37.498;2024-03-07T00:16:15;100636.03;;;-10.28;64.93
65546;BME280;52177;55.968;37.498;2024-03-07T00:16:46;100632.69;;;-10.30;65.34
65546;BME280;52177;55.968;37.498;2024-03-07T00:17:16;100633.53;;;-10.31;65.20
65546;BME280;52177;55.968;37.498;2024-03-07T00:17:48;100630.13;;;-10.33;65.34
65546;BME280;52177;55.968;37.498;2024-03-07T00:18:18;100633.59;;;-10.34;65.17
65546;BME280;52177;55.968;37.498;2024-03-07T00:18:49;100631.88;;;-10.35;65.16
65546;BME280;52177;55.968;37.498;2024-03-07T00:19:19;100637.91;;;-10.36;65.18
65546;BME280;52177;55.968;37.498;2024-03-07T00:19:49;100633.66;;;-10.37;65.10
65546;BME280;52177;55.968;37.498;2024-03-07T00:20:20;100633.66;;;-10.37;65.28
65546;BME280;52177;55.968;37.498;2024-03-07T00:20:50;100642.19;;;-10.35;65.13
65546;BME280;52177;55.968;37.498;2024-03-07T00:21:21;100631.88;;;-10.35;65.42
65546;BME280;52177;55.968;37.498;2024-03-07T00:21:53;100633.59;;;-10.34;65.32
65546;BME280;52177;55.968;37.498;2024-03-07T00:22:24;100632.72;;;-10.33;65.22
65546;BME280;52177;55.968;37.498;2024-03-07T00:22:57;100629.28;;;-10.33;64.93
65546;BME280;52177;55.968;37.498;2024-03-07T00:23:27;100630.19;;;-10.34;64.78
65546;BME280;52177;55.968;37.498;2024-03-07T00:23:57;100625.03;;;-10.36;64.91
65546;BME280;52177;55.968;37.498;2024-03-07T00:24:29;100630.19;;;-10.37;65.03
65546;BME280;52177;55.968;37.498;2024-03-07T00:25:00;100637.06;;;-10.38;65.24
65546;BME280;52177;55.968;37.498;2024-03-07T00:25:30;100637.06;;;-10.38;65.12
65546;BME280;52177;55.968;37.498;2024-03-07T00:26:01;100642.28;;;-10.41;65.06
65546;BME280;52177;55.968;37.498;2024-03-07T00:26:32;100638.88;;;-10.45;65.11
65546;BME280;52177;55.968;37.498;2024-03-07T00:27:03;100635.47;;;-10.45;65.11
65546;BME280;52177;55.968;37.498;2024-03-07T00:27:33;100638.94;;;-10.46;65.26
65546;BME280;52177;55.968;37.498;2024-03-07T00:28:04;100631.19;;;-10.46;65.28
65546;BME280;52177;55.968;37.498;2024-03-07T00:28:35;100634.63;;;-10.47;65.18
65546;BME280;52177;55.968;37.498;2024-03-07T00:29:09;100632.06;;;-10.47;65.46
65546;BME280;52177;55.968;37.498;2024-03-07T00:29:40;100632.06;;;-10.47;65.52
65546;BME280;52177;55.968;37.498;2024-03-07T00:30:11;100633.78;;;-10.46;65.44
65546;BME280;52177;55.968;37.498;2024-03-07T00:30:44;100636.34;;;-10.46;65.45
65546;BME280;52177;55.968;37.498;2024-03-07T00:31:15;100634.63;;;-10.47;65.47
65546;BME280;52177;55.968;37.498;2024-03-07T00:31:47;100634.66;;;-10.49;65.55
65546;BME280;52177;55.968;37.498;2024-03-07T00:32:17;100626.94;;;-10.50;65.65
65546;BME280;52177;55.968;37.498;2024-03-07T00:32:48;100629.53;;;-10.49;65.80
65546;BME280;52177;55.968;37.498;2024-03-07T00:33:19;100632.06;;;-10.47;65.82
65546;BME280;52177;55.968;37.498;2024-03-07T00:33:51;100630.31;;;-10.45;65.83
65546;BME280;52177;55.968;37.498;2024-03-07T00:34:22;100626.84;;;-10.44;65.82
65546;BME280;52177;55.968;37.498;2024-03-07T00:34:53;100634.56;;;-10.41;65.82
65546;BME280;52177;55.968;37.498;2024-03-07T00:35:23;100630.19;;;-10.37;65.80
65546;BME280;52177;55.968;37.498;2024-03-07T00:35:54;100625.03;;;-10.36;65.63
65546;BME280;52177;55.968;37.498;2024-03-07T00:36:24;100625.03;;;-10.36;65.36
65546;BME280;52177;55.968;37.498;2024-03-07T00:36:55;100629.34;;;-10.36;65.37
65546;BME280;52177;55.968;37.498;2024-03-07T00:37:28;100628.50;;;-10.38;65.25
65546;BME280;52177;55.968;37.498;2024-03-07T00:37:58;100626.78;;;-10.39;65.19
65546;BME280;52177;55.968;37.498;2024-03-07T00:38:29;100620.81;;;-10.42;65.27
65546;BME280;52177;55.968;37.498;2024-03-07T00:38:59;100619.94;;;-10.42;65.34
65546;BME280;52177;55.968;37.498;2024-03-07T00:39:30;100628.56;;;-10.42;65.52
65546;BME280;52177;55.968;37.498;2024-03-07T00:40:01;100623.34;;;-10.40;65.47
65546;BME280;52177;55.968;37.498;2024-03-07T00:40:32;100628.50;;;-10.40;65.48
65546;BME280;52177;55.968;37.498;2024-03-07T00:41:03;100624.25;;;-10.43;65.28
65546;BME280;52177;55.968;37.498;2024-03-07T00:41:34;100626.00;;;-10.45;65.23
65546;BME280;52177;55.968;37.498;2024-03-07T00:42:04;100623.47;;;-10.46;65.41
65546;BME280;52177;55.968;37.498;2024-03-07T00:42:35;100625.22;;;-10.50;65.24
65546;BME280;52177;55.968;37.498;2024-03-07T00:43:05;100624.38;;;-10.52;65.39
65546;BME280;52177;55.968;37.498;2024-03-07T00:43:36;100627.84;;;-10.53;65.41
65546;BME280;52177;55.968;37.498;2024-03-07T00:44:07;100627.00;;;-10.55;65.51
65546;BME280;52177;55.968;37.498;2024-03-07T00:44:39;100626.19;;;-10.57;65.37
65546;BME280;52177;55.968;37.498;2024-03-07T00:45:09;100624.50;;;-10.58;65.54
65546;BME280;52177;55.968;37.498;2024-03-07T00:45:40;100626.19;;;-10.57;65.73
65546;BME280;52177;55.968;37.498;2024-03-07T00:46:10;100633.84;;;-10.54;65.85
65546;BME280;52177;55.968;37.498;2024-03-07T00:46:41;100627.00;;;-10.53;65.92
65546;BME280;52177;55.968;37.498;2024-03-07T00:47:11;100620.06;;;-10.51;65.97
65546;BME280;52177;55.968;37.498;2024-03-07T00:47:42;100621.78;;;-10.49;66.05
65546;BME280;52177;55.968;37.498;2024-03-07T00:48:12;100627.75;;;-10.47;66.02
65546;BME280;52177;55.968;37.498;2024-03-07T00:48:43;100620.00;;;-10.45;65.86
65546;BME280;52177;55.968;37.498;2024-03-07T00:49:15;100626.00;;;-10.43;65.77
65546;BME280;52177;55.968;37.498;2024-03-07T00:49:46;100628.56;;;-10.45;65.46
65546;BME280;52177;55.968;37.498;2024-03-07T00:50:17;100626.03;;;-10.46;65.26
65546;BME280;52177;55.968;37.498;2024-03-07T00:50:47;100627.78;;;-10.48;65.32
65546;BME280;52177;55.968;37.498;2024-03-07T00:51:18;100625.22;;;-10.48;65.56
65546;BME280;52177;55.968;37.498;2024-03-07T00:51:48;100624.38;;;-10.49;65.65
65546;BME280;52177;55.968;37.498;2024-03-07T00:52:19;100620.94;;;-10.51;65.75
65546;BME280;52177;55.968;37.498;2024-03-07T00:52:49;100623.50;;;-10.49;65.84
65546;BME280;52177;55.968;37.498;2024-03-07T00:53:20;100621.75;;;-10.47;65.91
65546;BME280;52177;55.968;37.498;2024-03-07T00:53:50;100619.16;;;-10.46;65.93
65546;BME280;52177;55.968;37.498;2024-03-07T00:54:21;100620.00;;;-10.45;65.76
65546;BME280;52177;55.968;37.498;2024-03-07T00:54:51;100617.44;;;-10.47;65.50
65546;BME280;52177;55.968;37.498;2024-03-07T00:55:22;100620.88;;;-10.46;65.59
65546;BME280;52177;55.968;37.498;2024-03-07T00:55:52;100617.47;;;-10.48;65.56
65546;BME280;52177;55.968;37.498;2024-03-07T00:56:24;100615.75;;;-10.48;65.66
65546;BME280;52177;55.968;37.498;2024-03-07T00:56:54;100611.44;;;-10.47;65.70
65546;BME280;52177;55.968;37.498;2024-03-07T00:57:25;100619.16;;;-10.47;65.69
65546;BME280;52177;55.968;37.498;2024-03-07T00:57:55;100614.84;;;-10.47;65.48
65546;BME280;52177;55.968;37.498;2024-03-07T00:58:26;100616.59;;;-10.46;65.48
65546;BME280;52177;55.968;37.498;2024-03-07T00:58:57;100617.44;;;-10.47;65.56
65546;BME280;52177;55.968;37.498;2024-03-07T00:59:28;100617.44;;;-10.45;65.54
65546;BME280;52177;55.968;37.498;2024-03-07T00:59:58;100613.16;;;-10.46;65.56
65546;BME280;52177;55.968;37.498;2024-03-07T01:00:29;100618.25;;;-10.43;65.71
65546;BME280;52177;55.968;37.498;2024-03-07T01:00:59;100613.94;;;-10.43;65.64
65546;BME280;52177;55.968;37.498;2024-03-07T01:01:30;100610.53;;;-10.42;65.59
65546;BME280;52177;55.968;37.498;2024-03-07T01:02:03;100615.63;;;-10.40;65.46
65546;BME280;52177;55.968;37.498;2024-03-07T01:02:33;100612.19;;;-10.39;65.27
65546;BME280;52177;55.968;37.498;2024-03-07T01:03:04;100616.47;;;-10.38;65.29
65546;BME280;52177;55.968;37.498;2024-03-07T01:03:35;100606.09;;;-10.35;65.48
65546;BME280;52177;55.968;37.498;2024-03-07T01:04:05;100607.00;;;-10.36;65.19
65546;BME280;52177;55.968;37.498;2024-03-07T01:04:36;100612.97;;;-10.34;65.02
65546;BME280;52177;55.968;37.498;2024-03-07T01:05:07;100608.69;;;-10.35;64.97
65546;BME280;52177;55.968;37.498;2024-03-07T01:05:40;100607.84;;;-10.35;64.99
65546;BME280;52177;55.968;37.498;2024-03-07T01:06:10;100611.25;;;-10.35;65.13
65546;BME280;52177;55.968;37.498;2024-03-07T01:06:41;100609.56;;;-10.36;65.03
65546;BME280;52177;55.968;37.498;2024-03-07T01:07:11;100613.00;;;-10.35;64.83
65546;BME280;52177;55.968;37.498;2024-03-07T01:07:42;100607.88;;;-10.37;64.77
65546;BME280;52177;55.968;37.498;2024-03-07T01:08:13;100612.16;;;-10.37;64.99
65546;BME280;52177;55.968;37.498;2024-03-07T01:08:44;100606.22;;;-10.41;64.83
65546;BME280;52177;55.968;37.498;2024-03-07T01:09:14;100609.69;;;-10.44;64.86
65546;BME280;52177;55.968;37.498;2024-03-07T01:09:46;100605.44;;;-10.46;65.03
65546;BME280;52177;55.968;37.498;2024-03-07T01:10:17;100604.59;;;-10.50;64.98
65546;BME280;52177;55.968;37.498;2024-03-07T01:10:47;100608.97;;;-10.53;64.90
65546;BME280;52177;55.968;37.498;2024-03-07T01:11:19;100609.00;;;-10.56;65.03
65546;BME280;52177;55.968;37.498;2024-03-07T01:11:49;100605.63;;;-10.60;64.95
65546;BME280;52177;55.968;37.498;2024-03-07T01:12:19;100612.50;;;-10.62;65.07
65546;BME280;52177;55.968;37.498;2024-03-07T01:12:52;100602.22;;;-10.64;64.98
65546;BME280;52177;55.968;37.498;2024-03-07T01:13:24;100603.13;;;-10.66;64.99
65546;BME280;52177;55.968;37.498;2024-03-07T01:13:54;100604.00;;;-10.67;65.03
65546;BME280;52177;55.968;37.498;2024-03-07T01:14:25;100608.28;;;-10.68;65.24
65546;BME280;52177;55.968;37.498;2024-03-07T01:14:56;100605.69;;;-10.68;65.18
65546;BME280;52177;55.968;37.498;2024-03-07T01:15:31;100601.44;;;-10.67;65.24
65546;BME280;52177;55.968;37.498;2024-03-07T01:16:02;100603.94;;;-10.64;65.35
65546;BME280;52177;55.968;37.498;2024-03-07T01:16:33;100599.63;;;-10.62;65.26
65546;BME280;52177;55.968;37.498;2024-03-07T01:17:04;100596.16;;;-10.61;65.26
65546;BME280;52177;55.968;37.498;2024-03-07T01:17:37;100600.47;;;-10.60;65.02
65546;BME280;52177;55.968;37.498;2024-03-07T01:18:08;100598.75;;;-10.61;64.56
65546;BME280;52177;55.968;37.498;2024-03-07T01:18:38;100606.53;;;-10.64;64.70
65546;BME280;52177;55.968;37.498;2024-03-07T01:19:10;100604.84;;;-10.67;64.54
65546;BME280;52177;55.968;37.498;2024-03-07T01:19:40;100599.75;;;-10.70;64.70
65546;BME280;52177;55.968;37.498;2024-03-07T01:20:11;100600.66;;;-10.74;64.57
65546;BME280;52177;55.968;37.498;2024-03-07T01:20:41;100604.97;;;-10.76;64.77
65546;BME280;52177;55.968;37.498;2024-03-07T01:21:12;100604.13;;;-10.78;64.91
65546;BME280;52177;55.968;37.498;2024-03-07T01:21:43;100596.44;;;-10.81;64.99
65546;BME280;52177;55.968;37.498;2024-03-07T01:22:14;100601.63;;;-10.82;65.19
65546;BME280;52177;55.968;37.498;2024-03-07T01:22:45;100603.34;;;-10.85;65.29
65546;BME280;52177;55.968;37.498;2024-03-07T01:23:15;100602.50;;;-10.85;65.40
65546;BME280;52177;55.968;37.498;2024-03-07T01:23:46;100604.25;;;-10.87;65.48
65546;BME280;52177;55.968;37.498;2024-03-07T01:24:17;100601.69;;;-10.89;65.69
65546;BME280;52177;55.968;37.498;2024-03-07T01:24:48;100602.56;;;-10.91;65.52
65546;BME280;52177;55.968;37.498;2024-03-07T01:25:18;100592.31;;;-10.94;65.51
65546;BME280;52177;55.968;37.498;2024-03-07T01:25:48;100598.34;;;-10.95;65.43
65546;BME280;52177;55.968;37.498;2024-03-07T01:26:19;100602.63;;;-10.96;65.46
65546;BME280;52177;55.968;37.498;2024-03-07T01:26:49;100591.53;;;-10.98;65.39
65546;BME280;52177;55.968;37.498;2024-03-07T01:27:20;100594.94;;;-10.99;65.46
65546;BME280;52177;55.968;37.498;2024-03-07T01:27:50;100590.69;;;-11.00;65.53
65546;BME280;52177;55.968;37.498;2024-03-07T01:28:21;100588.06;;;-10.98;65.59
65546;BME280;52177;55.968;37.498;2024-03-07T01:28:52;100591.53;;;-10.99;65.55
65546;BME280;52177;55.968;37.498;2024-03-07T01:29:25;100592.38;;;-10.99;65.45
65546;BME280;52177;55.968;37.498;2024-03-07T01:29:55;100589.81;;;-10.99;65.50
65546;BME280;52177;55.968;37.498;2024-03-07T01:30:25;100588.97;;;-11.01;65.55
65546;BME280;52177;55.968;37.498;2024-03-07T01:30:58;100594.13;;;-11.01;65.44
65546;BME280;52177;55.968;37.498;2024-03-07T01:31:28;100591.53;;;-11.01;65.53
65546;BME280;52177;55.968;37.498;2024-03-07T01:31:59;100584.69;;;-11.02;65.64
65546;BME280;52177;55.968;37.498;2024-03-07T01:32:29;100592.44;;;-11.02;65.67
65546;BME280;52177;55.968;37.498;2024-03-07T01:33:00;100592.44;;;-11.02;65.63
65546;BME280;52177;55.968;37.498;2024-03-07T01:33:30;100590.72;;;-11.03;65.79
65546;BME280;52177;55.968;37.498;2024-03-07T01:34:01;100596.72;;;-11.02;65.78
65546;BME280;52177;55.968;37.498;2024-03-07T01:34:31;100589.00;;;-11.04;65.79
65546;BME280;52177;55.968;37.498;2024-03-07T01:35:02;100591.59;;;-11.02;66.04
65546;BME280;52177;55.968;37.498;2024-03-07T01:35:32;100590.75;;;-11.05;66.06
65546;BME280;52177;55.968;37.498;2024-03-07T01:36:03;100589.91;;;-11.07;66.21
65546;BME280;52177;55.968;37.498;2024-03-07T01:36:35;100585.59;;;-11.08;66.28
65546;BME280;52177;55.968;37.498;2024-03-07T01:37:06;100590.78;;;-11.09;66.44
65546;BME280;52177;55.968;37.498;2024-03-07T01:37:38;100585.66;;;-11.09;66.18
65546;BME280;52177;55.968;37.498;2024-03-07T01:38:08;100591.66;;;-11.10;66.14
65546;BME280;52177;55.968;37.498;2024-03-07T01:38:41;100589.06;;;-11.10;66.21
65546;BME280;52177;55.968;37.498;2024-03-07T01:39:11;100585.66;;;-11.11;65.98
65546;BME280;52177;55.968;37.498;2024-03-07T01:39:42;100591.66;;;-11.10;65.95
65546;BME280;52177;55.968;37.498;2024-03-07T01:40:13;100587.38;;;-11.11;66.11
65546;BME280;52177;55.968;37.498;2024-03-07T01:40:46;100586.53;;;-11.12;66.01
65546;BME280;52177;55.968;37.498;2024-03-07T01:41:17;100573.69;;;-11.13;65.99
65546;BME280;52177;55.968;37.498;2024-03-07T01:41:47;100586.53;;;-11.13;65.98
65546;BME280;52177;55.968;37.498;2024-03-07T01:42:18;100582.25;;;-11.11;66.22
65546;BME280;52177;55.968;37.498;2024-03-07T01:42:49;100582.25;;;-11.11;66.20
65546;BME280;52177;55.968;37.498;2024-03-07T01:43:20;100585.66;;;-11.09;66.26
65546;BME280;52177;55.968;37.498;2024-03-07T01:43:51;100581.34;;;-11.07;66.31
65546;BME280;52177;55.968;37.498;2024-03-07T01:44:22;100583.03;;;-11.05;66.34
65546;BME280;52177;55.968;37.498;2024-03-07T01:44:52;100583.84;;;-11.02;66.22
65546;BME280;52177;55.968;37.498;2024-03-07T01:45:22;100576.94;;;-11.00;66.42
65546;BME280;52177;55.968;37.498;2024-03-07T01:45:54;100579.47;;;-10.96;66.34
65546;BME280;52177;55.968;37.498;2024-03-07T01:46:29;100580.28;;;-10.94;66.24
65546;BME280;52177;55.968;37.498;2024-03-07T01:46:59;100582.84;;;-10.91;66.30
65546;BME280;52177;55.968;37.498;2024-03-07T01:47:33;100578.50;;;-10.87;66.16
65546;BME280;52177;55.968;37.498;2024-03-07T01:48:04;100578.47;;;-10.86;66.01
65546;BME280;52177;55.968;37.498;2024-03-07T01:48:37;100574.19;;;-10.85;66.13
65546;BME280;52177;55.968;37.498;2024-03-07T01:49:08;100580.16;;;-10.83;66.04
65546;BME280;52177;55.968;37.498;2024-03-07T01:49:39;100581.00;;;-10.81;65.60
65546;BME280;52177;55.968;37.498;2024-03-07T01:50:10;100576.75;;;-10.84;65.43
65546;BME280;52177;55.968;37.498;2024-03-07T01:50:40;100585.31;;;-10.85;65.23
65546;BME280;52177;55.968;37.498;2024-03-07T01:51:10;100573.34;;;-10.87;65.42
65546;BME280;52177;55.968;37.498;2024-03-07T01:51:41;100584.56;;;-10.91;65.43
65546;BME280;52177;55.968;37.498;2024-03-07T01:52:13;100581.13;;;-10.93;65.52
65546;BME280;52177;55.968;37.498;2024-03-07T01:52:44;100586.34;;;-10.96;65.54
65546;BME280;52177;55.968;37.498;2024-03-07T01:53:15;100588.06;;;-10.98;65.50
65546;BME280;52177;55.968;37.498;2024-03-07T01:53:47;100585.53;;;-11.01;65.68
65546;BME280;52177;55.968;37.498;2024-03-07T01:54:17;100585.59;;;-11.05;65.40
65546;BME280;52177;55.968;37.498;2024-03-07T01:54:48;100586.50;;;-11.09;65.41
65546;BME280;52177;55.968;37.498;2024-03-07T01:55:19;100581.38;;;-11.12;65.42
65546;BME280;52177;55.968;37.498;2024-03-07T01:55:50;100582.28;;;-11.14;65.63
65546;BME280;52177;55.968;37.498;2024-03-07T01:56:21;100586.56;;;-11.15;65.88
65546;BME280;52177;55.968;37.498;2024-03-07T01:56:52;100582.31;;;-11.17;65.71
65546;BME280;52177;55.968;37.498;2024-03-07T01:57:23;100578.03;;;-11.20;65.68
65546;BME280;52177;55.968;37.498;2024-03-07T01:57:56;100578.03;;;-11.20;65.74
65546;BME280;52177;55.968;37.498;2024-03-07T01:58:29;100577.25;;;-11.23;65.76
65546;BME280;52177;55.968;37.498;2024-03-07T01:59:01;100573.78;;;-11.22;66.00
65546;BME280;52177;55.968;37.498;2024-03-07T01:59:32;100581.50;;;-11.22;66.24
65546;BME280;52177;55.968;37.498;2024-03-07T02:00:03;100573.78;;;-11.22;66.04
65546;BME280;52177;55.968;37.498;2024-03-07T02:00:35;100574.63;;;-11.22;66.21
65546;BME280;52177;55.968;37.498;2024-03-07T02:01:05;100576.34;;;-11.22;66.20
65546;BME280;52177;55.968;37.498;2024-03-07T02:01:36;100578.03;;;-11.20;66.30
65546;BME280;52177;55.968;37.498;2024-03-07T02:02:07;100572.03;;;-11.19;66.39
65546;BME280;52177;55.968;37.498;2024-03-07T02:02:38;100577.16;;;-11.16;66.19
65546;BME280;52177;55.968;37.498;2024-03-07T02:03:08;100574.56;;;-11.17;66.21
65546;BME280;52177;55.968;37.498;2024-03-07T02:03:38;100573.72;;;-11.16;66.14
65546;BME280;52177;55.968;37.498;2024-03-07T02:04:09;100573.72;;;-11.16;66.10
65546;BME280;52177;55.968;37.498;2024-03-07T02:04:39;100570.28;;;-11.17;65.95
65546;BME280;52177;55.968;37.498;2024-03-07T02:05:10;100575.47;;;-11.20;65.88
65546;BME280;52177;55.968;37.498;2024-03-07T02:05:41;100572.06;;;-11.22;65.95
65546;BME280;52177;55.968;37.498;2024-03-07T02:06:11;100575.53;;;-11.24;66.14
65546;BME280;52177;55.968;37.498;2024-03-07T02:06:42;100567.81;;;-11.24;66.25
65546;BME280;52177;55.968;37.498;2024-03-07T02:07:12;100572.94;;;-11.26;66.14
65546;BME280;52177;55.968;37.498;2024-03-07T02:07:43;100568.69;;;-11.27;65.91
65546;BME280;52177;55.968;37.498;2024-03-07T02:08:14;100570.44;;;-11.29;65.89
65546;BME280;52177;55.968;37.498;2024-03-07T02:08:45;100569.59;;;-11.30;65.96
65546;BME280;52177;55.968;37.498;2024-03-07T02:09:15;100569.56;;;-11.28;66.04
65546;BME280;52177;55.968;37.498;2024-03-07T02:09:46;100570.41;;;-11.28;66.03
65546;BME280;52177;55.968;37.498;2024-03-07T02:10:16;100562.69;;;-11.28;66.18
65546;BME280;52177;55.968;37.498;2024-03-07T02:10:47;100569.53;;;-11.25;66.29
65546;BME280;52177;55.968;37.498;2024-03-07T02:11:18;100569.53;;;-11.23;66.19
65546;BME280;52177;55.968;37.498;2024-03-07T02:11:49;100570.38;;;-11.23;66.29
65546;BME280;52177;55.968;37.498;2024-03-07T02:12:19;100568.63;;;-11.22;66.15
65546;BME280;52177;55.968;37.498;2024-03-07T02:12:50;100567.78;;;-11.23;66.16
65546;BME280;52177;55.968;37.498;2024-03-07T02:13:21;100564.34;;;-11.22;66.09
65546;BME280;52177;55.968;37.498;2024-03-07T02:13:51;100572.91;;;-11.21;65.97
65546;BME280;52177;55.968;37.498;2024-03-07T02:14:22;100566.91;;;-11.22;65.96
65546;BME280;52177;55.968;37.498;2024-03-07T02:14:52;100567.78;;;-11.23;65.92
65546;BME280;52177;55.968;37.498;2024-03-07T02:15:22;100572.94;;;-11.23;65.83
65546;BME280;52177;55.968;37.498;2024-03-07T02:15:53;100568.69;;;-11.27;65.82
65546;BME280;52177;55.968;37.498;2024-03-07T02:16:24;100569.59;;;-11.30;65.96
65546;BME280;52177;55.968;37.498;2024-03-07T02:16:54;100568.75;;;-11.32;65.80
65546;BME280;52177;55.968;37.498;2024-03-07T02:17:26;100572.22;;;-11.34;65.84
65546;BME280;52177;55.968;37.498;2024-03-07T02:17:57;100570.53;;;-11.35;66.01
65546;BME280;52177;55.968;37.498;2024-03-07T02:18:28;100572.25;;;-11.37;66.17
65546;BME280;52177;55.968;37.498;2024-03-07T02:18:58;100572.22;;;-11.36;66.18
65546;BME280;52177;55.968;37.498;2024-03-07T02:19:32;100562.81;;;-11.35;66.36
65546;BME280;52177;55.968;37.498;2024-03-07T02:20:02;100561.91;;;-11.33;66.44
65546;BME280;52177;55.968;37.498;2024-03-07T02:20:34;100577.31;;;-11.31;66.26
65546;BME280;52177;55.968;37.498;2024-03-07T02:21:08;100576.47;;;-11.30;66.08
65546;BME280;52177;55.968;37.498;2024-03-07T02:21:41;100567.00;;;-11.31;65.89
65546;BME280;52177;55.968;37.498;2024-03-07T02:22:12;100574.75;;;-11.31;65.86
65546;BME280;52177;55.968;37.498;2024-03-07T02:22:43;100570.47;;;-11.34;65.80
65546;BME280;52177;55.968;37.498;2024-03-07T02:23:13;100573.09;;;-11.37;65.82
65546;BME280;52177;55.968;37.498;2024-03-07T02:23:44;100576.56;;;-11.39;65.78
65546;BME280;52177;55.968;37.498;2024-03-07T02:24:15;100569.72;;;-11.42;66.02
65546;BME280;52177;55.968;37.498;2024-03-07T02:24:46;100563.75;;;-11.44;66.00
65546;BME280;52177;55.968;37.498;2024-03-07T02:25:16;100570.63;;;-11.46;66.03
65546;BME280;52177;55.968;37.498;2024-03-07T02:25:47;100568.94;;;-11.49;66.00
65546;BME280;52177;55.968;37.498;2024-03-07T02:26:17;100571.56;;;-11.52;66.08
65546;BME280;52177;55.968;37.498;2024-03-07T02:26:48;100573.28;;;-11.55;66.10
65546;BME280;52177;55.968;37.498;2024-03-07T02:27:19;100577.59;;;-11.56;66.15
65546;BME280;52177;55.968;37.498;2024-03-07T02:27:49;100563.00;;;-11.57;66.30
65546;BME280;52177;55.968;37.498;2024-03-07T02:28:19;100567.31;;;-11.59;66.43
65546;BME280;52177;55.968;37.498;2024-03-07T02:28:50;100564.78;;;-11.60;66.43
65546;BME280;52177;55.968;37.498;2024-03-07T02:29:20;100563.94;;;-11.61;66.35
65546;BME280;52177;55.968;37.498;2024-03-07T02:29:51;100565.63;;;-11.61;66.45
65546;BME280;52177;55.968;37.498;2024-03-07T02:30:21;100565.63;;;-11.61;66.53
65546;BME280;52177;55.968;37.498;2024-03-07T02:30:51;100568.19;;;-11.60;66.58
65546;BME280;52177;55.968;37.498;2024-03-07T02:31:22;100566.50;;;-11.61;66.53
65546;BME280;52177;55.968;37.498;2024-03-07T02:32:05;100563.94;;;-11.61;66.63
65546;BME280;52177;55.968;37.498;2024-03-07T02:32:35;100567.34;;;-11.62;66.64
65546;BME280;52177;55.968;37.498;2024-03-07T02:33:07;100569.06;;;-11.61;66.85
65546;BME280;52177;55.968;37.498;2024-03-07T02:33:37;100563.91;;;-11.59;66.83
65546;BME280;52177;55.968;37.498;2024-03-07T02:34:08;100568.16;;;-11.57;66.93
65546;BME280;52177;55.968;37.498;2024-03-07T02:34:38;100565.56;;;-11.55;66.74
65546;BME280;52177;55.968;37.498;2024-03-07T02:35:09;100570.72;;;-11.54;66.72
65546;BME280;52177;55.968;37.498;2024-03-07T02:35:39;100564.69;;;-11.53;66.68
65546;BME280;52177;55.968;37.498;2024-03-07T02:36:09;100569.84;;;-11.53;66.66
65546;BME280;52177;55.968;37.498;2024-03-07T02:36:40;100563.81;;;-11.50;66.70
65546;BME280;52177;55.968;37.498;2024-03-07T02:37:10;100562.06;;;-11.48;66.82
65546;BME280;52177;55.968;37.498;2024-03-07T02:37:41;100568.03;;;-11.44;66.69